sensor_id;sensor_type;location;lat;lon;timestamp;P1;durP1;ratioP1;P2;durP2;ratioP2
18887;SDS011;9576;47.792;9.628;2023-07-29T00:00:49;7.70;;;4.68;;
18887;SDS011;9576;47.792;9.628;2023-07-29T00:03:51;12.38;;;5.93;;
18887;SDS011;9576;47.792;9.628;2023-07-29T00:06:53;8.35;;;4.80;;
18887;SDS011;9576;47.792;9.628;2023-07-29T00:09:55;7.32;;;5.10;;
18887;SDS011;9576;47.792;9.628;2023-07-29T00:12:57;8.15;;;5.10;;
18887;SDS011;9576;47.792;9.628;2023-07-29T00:16:00;13.70;;;5.22;;
18887;SDS011;9576;47.792;9.628;2023-07-29T00:19:02;10.07;;;6.00;;
18887;SDS011;9576;47.792;9.628;2023-07-29T00:22:04;19.20;;;6.70;;
18887;SDS011;9576;47.792;9.628;2023-07-29T00:25:08;17.30;;;7.45;;
18887;SDS011;9576;47.792;9.628;2023-07-29T00:28:10;10.02;;;5.65;;
18887;SDS011;9576;47.792;9.628;2023-07-29T00:31:14;12.15;;;5.53;;
18887;SDS011;9576;47.792;9.628;2023-07-29T00:34:16;13.38;;;5.95;;
18887;SDS011;9576;47.792;9.628;2023-07-29T00:37:19;8.77;;;5.68;;
18887;SDS011;9576;47.792;9.628;2023-07-29T00:40:22;8.88;;;5.80;;
18887;SDS011;9576;47.792;9.628;2023-07-29T00:43:24;11.95;;;5.47;;
18887;SDS011;9576;47.792;9.628;2023-07-29T00:46:27;15.75;;;5.32;;
18887;SDS011;9576;47.792;9.628;2023-07-29T00:49:29;15.75;;;6.38;;
18887;SDS011;9576;47.792;9.628;2023-07-29T00:52:32;9.07;;;5.80;;
18887;SDS011;9576;47.792;9.628;2023-07-29T00:55:34;11.70;;;6.30;;
18887;SDS011;9576;47.792;9.628;2023-07-29T00:58:36;37.78;;;13.13;;
18887;SDS011;9576;47.792;9.628;2023-07-29T01:01:39;12.27;;;7.22;;
18887;SDS011;9576;47.792;9.628;2023-07-29T01:04:41;8.05;;;6.13;;
18887;SDS011;9576;47.792;9.628;2023-07-29T01:07:44;9.23;;;6.53;;
18887;SDS011;9576;47.792;9.628;2023-07-29T01:10:55;11.95;;;6.82;;
18887;SDS011;9576;47.792;9.628;2023-07-29T01:14:06;9.75;;;7.55;;
18887;SDS011;9576;47.792;9.628;2023-07-29T01:17:19;12.13;;;6.68;;
18887;SDS011;9576;47.792;9.628;2023-07-29T01:20:23;16.25;;;6.63;;
18887;SDS011;9576;47.792;9.628;2023-07-29T01:23:30;8.32;;;5.93;;
18887;SDS011;9576;47.792;9.628;2023-07-29T01:26:32;9.07;;;6.28;;
18887;SDS011;9576;47.792;9.628;2023-07-29T01:29:34;23.02;;;8.15;;
18887;SDS011;9576;47.792;9.628;2023-07-29T01:32:38;8.45;;;6.13;;
18887;SDS011;9576;47.792;9.628;2023-07-29T01:35:45;8.35;;;5.80;;
18887;SDS011;9576;47.792;9.628;2023-07-29T01:38:53;8.80;;;6.00;;
18887;SDS011;9576;47.792;9.628;2023-07-29T01:41:56;10.23;;;6.47;;
18887;SDS011;9576;47.792;9.628;2023-07-29T01:44:58;14.45;;;6.18;;
18887;SDS011;9576;47.792;9.628;2023-07-29T01:48:01;10.73;;;6.20;;
18887;SDS011;9576;47.792;9.628;2023-07-29T01:51:03;10.35;;;6.32;;
18887;SDS011;9576;47.792;9.628;2023-07-29T01:54:06;16.50;;;6.40;;
18887;SDS011;9576;47.792;9.628;2023-07-29T01:57:08;11.38;;;6.82;;
18887;SDS011;9576;47.792;9.628;2023-07-29T02:00:10;18.90;;;6.57;;
18887;SDS011;9576;47.792;9.628;2023-07-29T02:03:13;8.18;;;5.93;;
18887;SDS011;9576;47.792;9.628;2023-07-29T02:06:14;11.13;;;6.00;;
18887;SDS011;9576;47.792;9.628;2023-07-29T02:09:18;9.95;;;6.28;;
18887;SDS011;9576;47.792;9.628;2023-07-29T02:12:20;8.18;;;5.57;;
18887;SDS011;9576;47.792;9.628;2023-07-29T02:15:22;12.82;;;5.70;;
18887;SDS011;9576;47.792;9.628;2023-07-29T02:18:24;13.27;;;5.97;;
18887;SDS011;9576;47.792;9.628;2023-07-29T02:21:25;7.97;;;5.55;;
18887;SDS011;9576;47.792;9.628;2023-07-29T02:24:29;12.63;;;5.82;;
18887;SDS011;9576;47.792;9.628;2023-07-29T02:27:30;8.75;;;5.82;;
18887;SDS011;9576;47.792;9.628;2023-07-29T02:30:33;8.90;;;5.82;;
18887;SDS011;9576;47.792;9.628;2023-07-29T02:33:35;6.65;;;4.88;;
18887;SDS011;9576;47.792;9.628;2023-07-29T02:36:37;8.73;;;5.25;;
18887;SDS011;9576;47.792;9.628;2023-07-29T02:39:41;10.60;;;5.85;;
18887;SDS011;9576;47.792;9.628;2023-07-29T02:42:42;12.00;;;6.47;;
18887;SDS011;9576;47.792;9.628;2023-07-29T02:45:44;12.90;;;5.43;;
18887;SDS011;9576;47.792;9.628;2023-07-29T02:48:46;20.70;;;6.25;;
18887;SDS011;9576;47.792;9.628;2023-07-29T02:51:48;10.98;;;6.05;;
18887;SDS011;9576;47.792;9.628;2023-07-29T02:54:51;18.30;;;5.45;;
18887;SDS011;9576;47.792;9.628;2023-07-29T02:57:53;20.80;;;5.93;;
18887;SDS011;9576;47.792;9.628;2023-07-29T03:00:59;11.95;;;6.18;;
18887;SDS011;9576;47.792;9.628;2023-07-29T03:04:02;11.90;;;5.93;;
18887;SDS011;9576;47.792;9.628;2023-07-29T03:07:04;17.60;;;6.65;;
18887;SDS011;9576;47.792;9.628;2023-07-29T03:10:08;11.93;;;6.63;;
18887;SDS011;9576;47.792;9.628;2023-07-29T03:13:11;10.63;;;5.88;;
18887;SDS011;9576;47.792;9.628;2023-07-29T03:16:13;15.43;;;6.10;;
18887;SDS011;9576;47.792;9.628;2023-07-29T03:19:16;9.65;;;5.80;;
18887;SDS011;9576;47.792;9.628;2023-07-29T03:22:18;17.45;;;6.22;;
18887;SDS011;9576;47.792;9.628;2023-07-29T03:25:21;10.95;;;6.25;;
18887;SDS011;9576;47.792;9.628;2023-07-29T03:28:23;9.52;;;6.00;;
18887;SDS011;9576;47.792;9.628;2023-07-29T03:31:26;10.68;;;6.20;;
18887;SDS011;9576;47.792;9.628;2023-07-29T03:34:28;9.77;;;5.80;;
18887;SDS011;9576;47.792;9.628;2023-07-29T03:37:30;9.55;;;5.65;;
18887;SDS011;9576;47.792;9.628;2023-07-29T03:40:33;18.38;;;6.18;;
18887;SDS011;9576;47.792;9.628;2023-07-29T03:43:35;12.18;;;5.90;;
18887;SDS011;9576;47.792;9.628;2023-07-29T03:46:37;14.73;;;5.90;;
18887;SDS011;9576;47.792;9.628;2023-07-29T03:49:38;11.55;;;5.93;;
18887;SDS011;9576;47.792;9.628;2023-07-29T03:52:40;9.05;;;5.50;;
18887;SDS011;9576;47.792;9.628;2023-07-29T03:55:44;16.85;;;5.18;;
18887;SDS011;9576;47.792;9.628;2023-07-29T03:58:47;8.95;;;5.60;;
18887;SDS011;9576;47.792;9.628;2023-07-29T04:01:49;13.48;;;5.90;;
18887;SDS011;9576;47.792;9.628;2023-07-29T04:04:51;15.95;;;5.10;;
18887;SDS011;9576;47.792;9.628;2023-07-29T04:07:53;8.60;;;5.78;;
18887;SDS011;9576;47.792;9.628;2023-07-29T04:10:56;8.55;;;5.55;;
18887;SDS011;9576;47.792;9.628;2023-07-29T04:13:58;13.45;;;5.72;;
18887;SDS011;9576;47.792;9.628;2023-07-29T04:17:00;10.48;;;5.43;;
18887;SDS011;9576;47.792;9.628;2023-07-29T04:20:02;10.30;;;5.13;;
18887;SDS011;9576;47.792;9.628;2023-07-29T04:23:05;13.68;;;5.60;;
18887;SDS011;9576;47.792;9.628;2023-07-29T04:26:08;34.00;;;6.03;;
18887;SDS011;9576;47.792;9.628;2023-07-29T04:29:10;10.23;;;4.40;;
18887;SDS011;9576;47.792;9.628;2023-07-29T04:32:12;9.45;;;4.95;;
18887;SDS011;9576;47.792;9.628;2023-07-29T04:35:14;12.05;;;5.00;;
18887;SDS011;9576;47.792;9.628;2023-07-29T04:38:16;16.00;;;4.97;;
18887;SDS011;9576;47.792;9.628;2023-07-29T04:41:19;6.97;;;5.05;;
18887;SDS011;9576;47.792;9.628;2023-07-29T04:44:21;6.35;;;4.38;;
18887;SDS011;9576;47.792;9.628;2023-07-29T04:47:23;12.05;;;6.10;;
18887;SDS011;9576;47.792;9.628;2023-07-29T04:50:25;8.45;;;5.10;;
18887;SDS011;9576;47.792;9.628;2023-07-29T04:53:27;8.25;;;4.90;;
18887;SDS011;9576;47.792;9.628;2023-07-29T04:56:30;9.63;;;5.20;;
18887;SDS011;9576;47.792;9.628;2023-07-29T04:59:32;19.85;;;6.40;;
18887;SDS011;9576;47.792;9.628;2023-07-29T05:02:34;12.45;;;5.20;;
18887;SDS011;9576;47.792;9.628;2023-07-29T05:05:36;10.02;;;6.00;;
18887;SDS011;9576;47.792;9.628;2023-07-29T05:08:38;10.13;;;6.78;;
18887;SDS011;9576;47.792;9.628;2023-07-29T05:11:41;45.40;;;6.22;;
18887;SDS011;9576;47.792;9.628;2023-07-29T05:14:45;30.75;;;7.25;;
18887;SDS011;9576;47.792;9.628;2023-07-29T05:17:47;12.30;;;4.57;;
18887;SDS011;9576;47.792;9.628;2023-07-29T05:20:49;12.88;;;5.63;;
18887;SDS011;9576;47.792;9.628;2023-07-29T05:23:51;31.73;;;5.60;;
18887;SDS011;9576;47.792;9.628;2023-07-29T05:26:54;13.80;;;5.15;;
18887;SDS011;9576;47.792;9.628;2023-07-29T05:29:56;22.48;;;6.22;;
18887;SDS011;9576;47.792;9.628;2023-07-29T05:32:58;15.77;;;5.25;;
18887;SDS011;9576;47.792;9.628;2023-07-29T05:36:00;10.88;;;5.70;;
18887;SDS011;9576;47.792;9.628;2023-07-29T05:39:02;11.57;;;5.70;;
18887;SDS011;9576;47.792;9.628;2023-07-29T05:42:05;11.82;;;5.15;;
18887;SDS011;9576;47.792;9.628;2023-07-29T05:45:08;7.38;;;4.70;;
18887;SDS011;9576;47.792;9.628;2023-07-29T05:48:10;8.02;;;4.82;;
18887;SDS011;9576;47.792;9.628;2023-07-29T05:51:12;7.60;;;4.25;;
18887;SDS011;9576;47.792;9.628;2023-07-29T05:54:14;8.77;;;4.93;;
18887;SDS011;9576;47.792;9.628;2023-07-29T05:57:17;11.63;;;4.60;;
18887;SDS011;9576;47.792;9.628;2023-07-29T06:00:19;11.52;;;4.40;;
18887;SDS011;9576;47.792;9.628;2023-07-29T06:03:21;8.02;;;4.95;;
18887;SDS011;9576;47.792;9.628;2023-07-29T06:06:23;7.20;;;4.60;;
18887;SDS011;9576;47.792;9.628;2023-07-29T06:09:25;6.85;;;4.93;;
18887;SDS011;9576;47.792;9.628;2023-07-29T06:12:28;6.50;;;4.57;;
18887;SDS011;9576;47.792;9.628;2023-07-29T06:15:30;6.85;;;4.35;;
18887;SDS011;9576;47.792;9.628;2023-07-29T06:18:32;9.20;;;4.03;;
18887;SDS011;9576;47.792;9.628;2023-07-29T06:21:34;6.38;;;4.00;;
18887;SDS011;9576;47.792;9.628;2023-07-29T06:24:36;9.10;;;4.68;;
18887;SDS011;9576;47.792;9.628;2023-07-29T06:27:39;10.07;;;4.22;;
18887;SDS011;9576;47.792;9.628;2023-07-29T06:30:41;7.15;;;4.55;;
18887;SDS011;9576;47.792;9.628;2023-07-29T06:33:43;10.70;;;4.75;;
18887;SDS011;9576;47.792;9.628;2023-07-29T06:36:45;10.23;;;5.00;;
18887;SDS011;9576;47.792;9.628;2023-07-29T06:39:47;8.93;;;5.22;;
18887;SDS011;9576;47.792;9.628;2023-07-29T06:42:50;8.60;;;4.95;;
18887;SDS011;9576;47.792;9.628;2023-07-29T06:45:52;10.05;;;5.00;;
18887;SDS011;9576;47.792;9.628;2023-07-29T06:48:55;9.77;;;4.53;;
18887;SDS011;9576;47.792;9.628;2023-07-29T06:51:57;6.43;;;4.45;;
18887;SDS011;9576;47.792;9.628;2023-07-29T06:54:59;10.98;;;4.50;;
18887;SDS011;9576;47.792;9.628;2023-07-29T06:58:02;5.93;;;3.97;;
18887;SDS011;9576;47.792;9.628;2023-07-29T07:01:04;10.25;;;4.75;;
18887;SDS011;9576;47.792;9.628;2023-07-29T07:04:06;6.22;;;4.25;;
18887;SDS011;9576;47.792;9.628;2023-07-29T07:07:08;6.32;;;4.28;;
18887;SDS011;9576;47.792;9.628;2023-07-29T07:10:10;7.63;;;4.72;;
18887;SDS011;9576;47.792;9.628;2023-07-29T07:13:13;10.30;;;4.38;;
18887;SDS011;9576;47.792;9.628;2023-07-29T07:16:15;5.80;;;3.97;;
18887;SDS011;9576;47.792;9.628;2023-07-29T07:19:17;7.90;;;4.43;;
18887;SDS011;9576;47.792;9.628;2023-07-29T07:22:19;7.55;;;3.88;;
18887;SDS011;9576;47.792;9.628;2023-07-29T07:25:21;6.90;;;4.70;;
18887;SDS011;9576;47.792;9.628;2023-07-29T07:28:24;7.50;;;4.25;;
18887;SDS011;9576;47.792;9.628;2023-07-29T07:31:26;6.85;;;4.35;;
18887;SDS011;9576;47.792;9.628;2023-07-29T07:34:28;7.15;;;4.10;;
18887;SDS011;9576;47.792;9.628;2023-07-29T07:37:30;15.65;;;4.15;;
18887;SDS011;9576;47.792;9.628;2023-07-29T07:40:31;9.25;;;4.88;;
18887;SDS011;9576;47.792;9.628;2023-07-29T07:43:35;6.68;;;4.32;;
18887;SDS011;9576;47.792;9.628;2023-07-29T07:46:37;8.15;;;3.95;;
18887;SDS011;9576;47.792;9.628;2023-07-29T07:49:38;8.63;;;3.95;;
18887;SDS011;9576;47.792;9.628;2023-07-29T07:52:40;10.68;;;5.15;;
18887;SDS011;9576;47.792;9.628;2023-07-29T07:55:42;6.30;;;4.18;;
18887;SDS011;9576;47.792;9.628;2023-07-29T07:58:45;6.47;;;4.13;;
18887;SDS011;9576;47.792;9.628;2023-07-29T08:01:47;7.65;;;3.97;;
18887;SDS011;9576;47.792;9.628;2023-07-29T08:04:49;14.85;;;4.40;;
18887;SDS011;9576;47.792;9.628;2023-07-29T08:07:51;7.00;;;3.95;;
18887;SDS011;9576;47.792;9.628;2023-07-29T08:10:53;8.10;;;3.90;;
18887;SDS011;9576;47.792;9.628;2023-07-29T08:13:57;8.85;;;4.43;;
18887;SDS011;9576;47.792;9.628;2023-07-29T08:16:59;7.47;;;3.67;;
18887;SDS011;9576;47.792;9.628;2023-07-29T08:20:02;7.68;;;4.05;;
18887;SDS011;9576;47.792;9.628;2023-07-29T08:23:04;8.57;;;4.00;;
18887;SDS011;9576;47.792;9.628;2023-07-29T08:26:06;7.45;;;3.85;;
18887;SDS011;9576;47.792;9.628;2023-07-29T08:29:09;5.30;;;3.75;;
18887;SDS011;9576;47.792;9.628;2023-07-29T08:32:11;6.63;;;3.78;;
18887;SDS011;9576;47.792;9.628;2023-07-29T08:35:13;6.47;;;3.70;;
18887;SDS011;9576;47.792;9.628;2023-07-29T08:38:15;4.47;;;3.63;;
18887;SDS011;9576;47.792;9.628;2023-07-29T08:41:19;13.55;;;4.20;;
18887;SDS011;9576;47.792;9.628;2023-07-29T08:44:26;6.50;;;4.07;;
18887;SDS011;9576;47.792;9.628;2023-07-29T08:47:31;7.63;;;4.20;;
18887;SDS011;9576;47.792;9.628;2023-07-29T08:50:33;6.88;;;3.90;;
18887;SDS011;9576;47.792;9.628;2023-07-29T08:53:37;6.00;;;3.63;;
18887;SDS011;9576;47.792;9.628;2023-07-29T08:56:40;10.95;;;4.60;;
18887;SDS011;9576;47.792;9.628;2023-07-29T08:59:44;6.80;;;4.22;;
18887;SDS011;9576;47.792;9.628;2023-07-29T09:02:46;6.15;;;3.55;;
18887;SDS011;9576;47.792;9.628;2023-07-29T09:05:48;11.13;;;4.93;;
18887;SDS011;9576;47.792;9.628;2023-07-29T09:08:51;5.65;;;4.00;;
18887;SDS011;9576;47.792;9.628;2023-07-29T09:14:59;19.02;;;4.10;;
18887;SDS011;9576;47.792;9.628;2023-07-29T09:18:08;7.72;;;4.43;;
18887;SDS011;9576;47.792;9.628;2023-07-29T09:21:11;8.43;;;3.60;;
18887;SDS011;9576;47.792;9.628;2023-07-29T09:24:15;6.70;;;3.58;;
18887;SDS011;9576;47.792;9.628;2023-07-29T09:27:24;7.95;;;3.92;;
18887;SDS011;9576;47.792;9.628;2023-07-29T09:30:28;8.55;;;4.65;;
18887;SDS011;9576;47.792;9.628;2023-07-29T09:33:32;7.60;;;4.23;;
18887;SDS011;9576;47.792;9.628;2023-07-29T09:36:36;6.07;;;4.00;;
18887;SDS011;9576;47.792;9.628;2023-07-29T09:39:38;6.07;;;4.28;;
18887;SDS011;9576;47.792;9.628;2023-07-29T09:42:48;4.78;;;3.60;;
18887;SDS011;9576;47.792;9.628;2023-07-29T09:45:52;6.65;;;3.58;;
18887;SDS011;9576;47.792;9.628;2023-07-29T09:48:54;6.78;;;4.10;;
18887;SDS011;9576;47.792;9.628;2023-07-29T09:51:58;6.22;;;3.47;;
18887;SDS011;9576;47.792;9.628;2023-07-29T09:55:02;9.00;;;3.90;;
18887;SDS011;9576;47.792;9.628;2023-07-29T09:58:04;6.60;;;4.30;;
18887;SDS011;9576;47.792;9.628;2023-07-29T10:01:09;7.13;;;3.72;;
18887;SDS011;9576;47.792;9.628;2023-07-29T10:04:11;7.35;;;4.25;;
18887;SDS011;9576;47.792;9.628;2023-07-29T10:07:15;8.38;;;4.07;;
18887;SDS011;9576;47.792;9.628;2023-07-29T10:10:18;6.68;;;4.25;;
18887;SDS011;9576;47.792;9.628;2023-07-29T10:13:21;5.00;;;3.72;;
18887;SDS011;9576;47.792;9.628;2023-07-29T10:16:24;5.00;;;3.33;;
18887;SDS011;9576;47.792;9.628;2023-07-29T10:19:27;10.07;;;3.53;;
18887;SDS011;9576;47.792;9.628;2023-07-29T10:22:33;8.03;;;4.70;;
18887;SDS011;9576;47.792;9.628;2023-07-29T10:25:37;15.30;;;4.50;;
18887;SDS011;9576;47.792;9.628;2023-07-29T10:28:41;7.00;;;4.43;;
18887;SDS011;9576;47.792;9.628;2023-07-29T10:31:50;7.18;;;3.90;;
18887;SDS011;9576;47.792;9.628;2023-07-29T10:34:54;7.88;;;4.05;;
18887;SDS011;9576;47.792;9.628;2023-07-29T10:37:56;7.13;;;3.53;;
18887;SDS011;9576;47.792;9.628;2023-07-29T10:40:58;8.82;;;3.95;;
18887;SDS011;9576;47.792;9.628;2023-07-29T10:44:00;5.68;;;3.53;;
18887;SDS011;9576;47.792;9.628;2023-07-29T10:47:11;4.70;;;3.15;;
18887;SDS011;9576;47.792;9.628;2023-07-29T10:50:17;6.68;;;3.50;;
18887;SDS011;9576;47.792;9.628;2023-07-29T10:53:20;5.43;;;3.28;;
18887;SDS011;9576;47.792;9.628;2023-07-29T10:56:31;5.47;;;3.15;;
18887;SDS011;9576;47.792;9.628;2023-07-29T10:59:34;6.47;;;3.50;;
18887;SDS011;9576;47.792;9.628;2023-07-29T11:02:38;6.65;;;3.53;;
18887;SDS011;9576;47.792;9.628;2023-07-29T11:05:49;5.47;;;3.13;;
18887;SDS011;9576;47.792;9.628;2023-07-29T11:08:52;4.25;;;2.72;;
18887;SDS011;9576;47.792;9.628;2023-07-29T11:11:54;5.88;;;2.80;;
18887;SDS011;9576;47.792;9.628;2023-07-29T11:14:59;4.78;;;2.75;;
18887;SDS011;9576;47.792;9.628;2023-07-29T11:18:05;5.32;;;3.78;;
18887;SDS011;9576;47.792;9.628;2023-07-29T11:21:13;7.47;;;3.17;;
18887;SDS011;9576;47.792;9.628;2023-07-29T11:24:16;4.72;;;3.00;;
18887;SDS011;9576;47.792;9.628;2023-07-29T11:27:19;8.45;;;2.90;;
18887;SDS011;9576;47.792;9.628;2023-07-29T11:30:21;4.55;;;2.72;;
18887;SDS011;9576;47.792;9.628;2023-07-29T11:33:25;7.35;;;3.10;;
18887;SDS011;9576;47.792;9.628;2023-07-29T11:36:28;6.38;;;3.17;;
18887;SDS011;9576;47.792;9.628;2023-07-29T11:39:30;9.25;;;3.15;;
18887;SDS011;9576;47.792;9.628;2023-07-29T11:42:33;7.70;;;3.95;;
18887;SDS011;9576;47.792;9.628;2023-07-29T11:45:35;6.80;;;2.55;;
18887;SDS011;9576;47.792;9.628;2023-07-29T11:48:39;3.55;;;2.60;;
18887;SDS011;9576;47.792;9.628;2023-07-29T11:51:46;4.22;;;2.40;;
18887;SDS011;9576;47.792;9.628;2023-07-29T11:54:48;4.60;;;3.30;;
18887;SDS011;9576;47.792;9.628;2023-07-29T11:57:51;3.38;;;2.22;;
18887;SDS011;9576;47.792;9.628;2023-07-29T12:00:53;5.90;;;3.28;;
18887;SDS011;9576;47.792;9.628;2023-07-29T12:03:56;4.15;;;2.75;;
18887;SDS011;9576;47.792;9.628;2023-07-29T12:06:59;5.40;;;2.67;;
18887;SDS011;9576;47.792;9.628;2023-07-29T12:10:02;5.40;;;2.80;;
18887;SDS011;9576;47.792;9.628;2023-07-29T12:13:04;3.17;;;2.40;;
18887;SDS011;9576;47.792;9.628;2023-07-29T12:16:08;3.47;;;2.58;;
18887;SDS011;9576;47.792;9.628;2023-07-29T12:19:13;2.80;;;1.98;;
18887;SDS011;9576;47.792;9.628;2023-07-29T12:22:17;6.00;;;2.90;;
18887;SDS011;9576;47.792;9.628;2023-07-29T12:25:20;8.68;;;2.65;;
18887;SDS011;9576;47.792;9.628;2023-07-29T12:28:23;8.35;;;3.03;;
18887;SDS011;9576;47.792;9.628;2023-07-29T12:31:30;2.63;;;2.33;;
18887;SDS011;9576;47.792;9.628;2023-07-29T12:34:35;7.05;;;2.55;;
18887;SDS011;9576;47.792;9.628;2023-07-29T12:37:39;5.18;;;2.42;;
18887;SDS011;9576;47.792;9.628;2023-07-29T12:40:43;3.83;;;2.50;;
18887;SDS011;9576;47.792;9.628;2023-07-29T12:43:44;3.03;;;2.25;;
18887;SDS011;9576;47.792;9.628;2023-07-29T12:46:47;3.58;;;2.78;;
18887;SDS011;9576;47.792;9.628;2023-07-29T12:49:50;6.15;;;2.83;;
18887;SDS011;9576;47.792;9.628;2023-07-29T12:52:52;5.05;;;2.60;;
18887;SDS011;9576;47.792;9.628;2023-07-29T12:55:54;8.50;;;2.72;;
18887;SDS011;9576;47.792;9.628;2023-07-29T12:58:56;10.77;;;2.90;;
18887;SDS011;9576;47.792;9.628;2023-07-29T13:01:58;13.15;;;3.10;;
18887;SDS011;9576;47.792;9.628;2023-07-29T13:05:01;7.88;;;2.67;;
18887;SDS011;9576;47.792;9.628;2023-07-29T13:08:04;6.43;;;3.25;;
18887;SDS011;9576;47.792;9.628;2023-07-29T13:11:05;5.03;;;3.42;;
18887;SDS011;9576;47.792;9.628;2023-07-29T13:14:07;5.95;;;3.05;;
18887;SDS011;9576;47.792;9.628;2023-07-29T13:17:09;6.03;;;3.03;;
18887;SDS011;9576;47.792;9.628;2023-07-29T13:20:12;7.32;;;2.72;;
18887;SDS011;9576;47.792;9.628;2023-07-29T13:23:15;6.50;;;3.08;;
18887;SDS011;9576;47.792;9.628;2023-07-29T13:26:17;5.68;;;3.10;;
18887;SDS011;9576;47.792;9.628;2023-07-29T13:29:18;9.30;;;2.85;;
18887;SDS011;9576;47.792;9.628;2023-07-29T13:32:20;5.13;;;2.85;;
18887;SDS011;9576;47.792;9.628;2023-07-29T13:35:24;10.43;;;2.55;;
18887;SDS011;9576;47.792;9.628;2023-07-29T13:38:26;4.03;;;2.95;;
18887;SDS011;9576;47.792;9.628;2023-07-29T13:41:28;4.80;;;3.03;;
18887;SDS011;9576;47.792;9.628;2023-07-29T13:44:29;6.07;;;2.60;;
18887;SDS011;9576;47.792;9.628;2023-07-29T13:47:31;6.15;;;3.38;;
18887;SDS011;9576;47.792;9.628;2023-07-29T13:50:35;6.35;;;3.10;;
18887;SDS011;9576;47.792;9.628;2023-07-29T13:53:36;6.18;;;2.92;;
18887;SDS011;9576;47.792;9.628;2023-07-29T13:56:38;4.90;;;3.30;;
18887;SDS011;9576;47.792;9.628;2023-07-29T13:59:40;5.68;;;3.03;;
18887;SDS011;9576;47.792;9.628;2023-07-29T14:02:42;5.38;;;3.08;;
18887;SDS011;9576;47.792;9.628;2023-07-29T14:05:45;7.32;;;3.42;;
18887;SDS011;9576;47.792;9.628;2023-07-29T14:08:48;5.72;;;3.22;;
18887;SDS011;9576;47.792;9.628;2023-07-29T14:11:49;4.18;;;2.88;;
18887;SDS011;9576;47.792;9.628;2023-07-29T14:14:51;12.88;;;3.33;;
18887;SDS011;9576;47.792;9.628;2023-07-29T14:17:53;4.82;;;3.17;;
18887;SDS011;9576;47.792;9.628;2023-07-29T14:20:57;5.50;;;2.95;;
18887;SDS011;9576;47.792;9.628;2023-07-29T14:23:59;4.28;;;3.03;;
18887;SDS011;9576;47.792;9.628;2023-07-29T14:27:01;91.43;;;10.60;;
18887;SDS011;9576;47.792;9.628;2023-07-29T14:30:04;6.30;;;3.40;;
18887;SDS011;9576;47.792;9.628;2023-07-29T14:33:07;6.55;;;3.30;;
18887;SDS011;9576;47.792;9.628;2023-07-29T14:36:10;25.33;;;3.40;;
18887;SDS011;9576;47.792;9.628;2023-07-29T14:39:12;8.90;;;3.40;;
18887;SDS011;9576;47.792;9.628;2023-07-29T14:42:14;5.38;;;2.50;;
18887;SDS011;9576;47.792;9.628;2023-07-29T14:45:16;3.97;;;2.53;;
18887;SDS011;9576;47.792;9.628;2023-07-29T14:48:18;13.68;;;2.75;;
18887;SDS011;9576;47.792;9.628;2023-07-29T14:51:21;8.80;;;2.95;;
18887;SDS011;9576;47.792;9.628;2023-07-29T14:54:24;5.40;;;2.85;;
18887;SDS011;9576;47.792;9.628;2023-07-29T14:57:26;5.18;;;3.13;;
18887;SDS011;9576;47.792;9.628;2023-07-29T15:00:28;4.80;;;2.60;;
18887;SDS011;9576;47.792;9.628;2023-07-29T15:03:30;4.25;;;2.42;;
18887;SDS011;9576;47.792;9.628;2023-07-29T15:06:33;5.15;;;3.03;;
18887;SDS011;9576;47.792;9.628;2023-07-29T15:09:35;4.57;;;2.70;;
18887;SDS011;9576;47.792;9.628;2023-07-29T15:12:37;6.47;;;2.97;;
18887;SDS011;9576;47.792;9.628;2023-07-29T15:15:40;4.50;;;2.58;;
18887;SDS011;9576;47.792;9.628;2023-07-29T15:18:42;6.82;;;3.60;;
18887;SDS011;9576;47.792;9.628;2023-07-29T15:21:45;6.40;;;3.00;;
18887;SDS011;9576;47.792;9.628;2023-07-29T15:24:47;7.05;;;3.22;;
18887;SDS011;9576;47.792;9.628;2023-07-29T15:27:49;6.22;;;3.20;;
18887;SDS011;9576;47.792;9.628;2023-07-29T15:30:52;13.95;;;5.38;;
18887;SDS011;9576;47.792;9.628;2023-07-29T15:33:54;8.35;;;4.28;;
18887;SDS011;9576;47.792;9.628;2023-07-29T15:36:57;5.10;;;3.25;;
18887;SDS011;9576;47.792;9.628;2023-07-29T15:39:59;5.72;;;3.17;;
18887;SDS011;9576;47.792;9.628;2023-07-29T15:43:01;6.97;;;3.05;;
18887;SDS011;9576;47.792;9.628;2023-07-29T15:46:03;4.40;;;2.65;;
18887;SDS011;9576;47.792;9.628;2023-07-29T15:49:05;7.93;;;3.53;;
18887;SDS011;9576;47.792;9.628;2023-07-29T15:52:09;4.45;;;2.70;;
18887;SDS011;9576;47.792;9.628;2023-07-29T15:55:11;7.27;;;2.57;;
18887;SDS011;9576;47.792;9.628;2023-07-29T15:58:13;5.57;;;2.80;;
18887;SDS011;9576;47.792;9.628;2023-07-29T16:01:15;3.95;;;2.75;;
18887;SDS011;9576;47.792;9.628;2023-07-29T16:04:17;10.48;;;2.67;;
18887;SDS011;9576;47.792;9.628;2023-07-29T16:07:20;6.22;;;2.42;;
18887;SDS011;9576;47.792;9.628;2023-07-29T16:10:22;3.28;;;2.35;;
18887;SDS011;9576;47.792;9.628;2023-07-29T16:13:24;5.75;;;2.92;;
18887;SDS011;9576;47.792;9.628;2023-07-29T16:16:27;6.20;;;2.78;;
18887;SDS011;9576;47.792;9.628;2023-07-29T16:19:29;6.85;;;2.72;;
18887;SDS011;9576;47.792;9.628;2023-07-29T16:22:33;4.00;;;2.97;;
18887;SDS011;9576;47.792;9.628;2023-07-29T16:25:35;5.63;;;2.97;;
18887;SDS011;9576;47.792;9.628;2023-07-29T16:28:37;5.55;;;2.70;;
18887;SDS011;9576;47.792;9.628;2023-07-29T16:31:41;7.40;;;3.88;;
18887;SDS011;9576;47.792;9.628;2023-07-29T16:34:43;6.38;;;3.10;;
18887;SDS011;9576;47.792;9.628;2023-07-29T16:37:46;4.25;;;2.58;;
18887;SDS011;9576;47.792;9.628;2023-07-29T16:40:50;7.07;;;3.50;;
18887;SDS011;9576;47.792;9.628;2023-07-29T16:43:51;9.45;;;3.78;;
18887;SDS011;9576;47.792;9.628;2023-07-29T16:46:53;4.10;;;2.60;;
18887;SDS011;9576;47.792;9.628;2023-07-29T16:49:55;10.32;;;5.70;;
18887;SDS011;9576;47.792;9.628;2023-07-29T16:53:00;10.70;;;3.25;;
18887;SDS011;9576;47.792;9.628;2023-07-29T16:56:02;3.42;;;2.42;;
18887;SDS011;9576;47.792;9.628;2023-07-29T16:59:04;3.25;;;2.33;;
18887;SDS011;9576;47.792;9.628;2023-07-29T17:02:06;3.88;;;2.42;;
18887;SDS011;9576;47.792;9.628;2023-07-29T17:05:08;5.15;;;2.72;;
18887;SDS011;9576;47.792;9.628;2023-07-29T17:08:12;3.22;;;2.58;;
18887;SDS011;9576;47.792;9.628;2023-07-29T17:11:14;4.95;;;2.67;;
18887;SDS011;9576;47.792;9.628;2023-07-29T17:14:15;5.72;;;3.10;;
18887;SDS011;9576;47.792;9.628;2023-07-29T17:17:20;5.28;;;3.15;;
18887;SDS011;9576;47.792;9.628;2023-07-29T17:20:24;4.38;;;3.00;;
18887;SDS011;9576;47.792;9.628;2023-07-29T17:23:27;4.68;;;2.85;;
18887;SDS011;9576;47.792;9.628;2023-07-29T17:26:29;9.98;;;2.65;;
18887;SDS011;9576;47.792;9.628;2023-07-29T17:29:31;9.13;;;5.75;;
18887;SDS011;9576;47.792;9.628;2023-07-29T17:32:33;17.92;;;3.50;;
18887;SDS011;9576;47.792;9.628;2023-07-29T17:35:35;6.95;;;2.78;;
18887;SDS011;9576;47.792;9.628;2023-07-29T17:38:38;3.10;;;2.33;;
18887;SDS011;9576;47.792;9.628;2023-07-29T17:41:41;9.67;;;3.30;;
18887;SDS011;9576;47.792;9.628;2023-07-29T17:44:42;7.47;;;3.35;;
18887;SDS011;9576;47.792;9.628;2023-07-29T17:47:44;4.47;;;2.90;;
18887;SDS011;9576;47.792;9.628;2023-07-29T17:50:46;8.07;;;2.92;;
18887;SDS011;9576;47.792;9.628;2023-07-29T17:53:50;5.40;;;3.25;;
18887;SDS011;9576;47.792;9.628;2023-07-29T17:56:52;4.22;;;2.80;;
18887;SDS011;9576;47.792;9.628;2023-07-29T17:59:53;13.18;;;3.13;;
18887;SDS011;9576;47.792;9.628;2023-07-29T18:02:55;5.13;;;2.85;;
18887;SDS011;9576;47.792;9.628;2023-07-29T18:05:57;4.97;;;2.92;;
18887;SDS011;9576;47.792;9.628;2023-07-29T18:09:00;7.93;;;3.65;;
18887;SDS011;9576;47.792;9.628;2023-07-29T18:12:03;6.70;;;2.97;;
18887;SDS011;9576;47.792;9.628;2023-07-29T18:15:06;25.10;;;13.45;;
18887;SDS011;9576;47.792;9.628;2023-07-29T18:18:09;4.13;;;3.00;;
18887;SDS011;9576;47.792;9.628;2023-07-29T18:21:10;5.50;;;2.72;;
18887;SDS011;9576;47.792;9.628;2023-07-29T18:24:14;8.38;;;3.13;;
18887;SDS011;9576;47.792;9.628;2023-07-29T18:27:16;7.35;;;3.38;;
18887;SDS011;9576;47.792;9.628;2023-07-29T18:30:17;3.88;;;3.08;;
18887;SDS011;9576;47.792;9.628;2023-07-29T18:33:19;11.10;;;2.80;;
18887;SDS011;9576;47.792;9.628;2023-07-29T18:36:21;4.75;;;3.00;;